Time;durP1;ratioP1;P1;durP2;ratioP2;P2;SDS_P1;SDS_P2;PMS_P1;PMS_P2;Temp;Humidity;BMP_temperature;BMP_pressure;BME280_temperature;BME280_humidity;BME280_pressure;Samples;Min_cycle;Max_cycle;Signal;HPM_P1;HPM_P2
2022/02/12 00:02:11;;;;;;;;;;;-1.00;99.90;;;;;;5136075;28;19911;-78
2022/02/12 00:04:37;;;;;;;;;;;-1.00;99.90;;;;;;5134308;28;19912;-78
2022/02/12 00:07:02;;;;;;;;;;;-1.00;99.90;;;;;;5131059;28;19916;-78
2022/02/12 00:09:28;;;;;;;;;;;-1.10;99.90;;;;;;5108532;28;20010;-78
2022/02/12 00:11:54;;;;;;;;;;;-1.10;99.90;;;;;;5135912;28;20498;-78
2022/02/12 00:14:19;;;;;;;;;;;-1.00;99.90;;;;;;5126766;28;19968;-78
2022/02/12 00:16:46;;;;;;;;;;;-1.00;99.90;;;;;;5116870;28;19919;-78
2022/02/12 00:19:11;;;;;;;;;;;-1.00;99.90;;;;;;5136203;28;19957;-77
2022/02/12 00:21:37;;;;;;;;;;;-1.00;99.90;;;;;;5117776;28;20348;-79
2022/02/12 00:24:03;;;;;;;;;;;-1.00;99.90;;;;;;5135991;28;20266;-77
2022/02/12 00:26:28;;;;;;;;;;;-1.00;99.90;;;;;;5117033;28;19912;-78
2022/02/12 00:28:54;;;;;;;;;;;-1.00;99.90;;;;;;5136273;28;20265;-77
2022/02/12 00:31:19;;;;;;;;;;;-1.00;99.90;;;;;;5135792;28;19911;-79
2022/02/12 00:33:45;;;;;;;;;;;-0.50;99.90;;;;;;5117748;28;19947;-78
2022/02/12 00:36:10;;;;;;;;;;;-0.90;99.90;;;;;;5135105;28;19923;-79
2022/02/12 00:38:36;;;;;;;;;;;-1.00;99.90;;;;;;5136194;28;19989;-79
2022/02/12 00:41:01;;;;;;;;;;;-1.00;99.90;;;;;;5100547;28;20286;-78
2022/02/12 00:43:27;;;;;;;;;;;-1.00;99.90;;;;;;5135833;28;19915;-78
2022/02/12 00:45:52;;;;;;;;;;;-1.00;99.90;;;;;;5118776;27;19911;-79
2022/02/12 00:48:18;;;;;;;;;;;-1.20;99.90;;;;;;5139827;27;19998;-79
2022/02/12 00:50:44;;;;;;;;;;;-1.30;99.90;;;;;;5139569;27;20329;-78
2022/02/12 00:53:09;;;;;;;;;;;-1.40;99.90;;;;;;5121353;27;19915;-79
2022/02/12 00:55:35;;;;;;;;;;;-1.40;99.90;;;;;;5139357;27;19911;-79
2022/02/12 00:58:00;;;;;;;;;;;-1.40;99.90;;;;;;5139292;27;20221;-78
2022/02/12 01:00:26;;;;;;;;;;;-1.30;99.90;;;;;;5120917;27;20202;-78
2022/02/12 01:02:51;;;;;;;;;;;-1.40;99.90;;;;;;5139617;27;19914;-78
2022/02/12 01:05:17;;;;;;;;;;;-1.50;99.90;;;;;;5139664;27;19918;-78
2022/02/12 01:07:43;;;;;;;;;;;-1.50;99.90;;;;;;5125420;27;20017;-78
2022/02/12 01:10:08;;;;;;;;;;;-1.50;99.90;;;;;;5138050;27;19912;-78
2022/02/12 01:12:34;;;;;;;;;;;-1.60;99.90;;;;;;5120982;27;20420;-78
2022/02/12 01:15:00;;;;;;;;;;;-1.50;99.90;;;;;;5117439;27;20031;-79
2022/02/12 01:17:26;;;;;;;;;;;-1.50;99.90;;;;;;5129084;27;19973;-80
2022/02/12 01:19:52;;;;;;;;;;;-1.50;99.90;;;;;;5139127;27;20222;-77
2022/02/12 01:22:22;;;;;;;;;;;-1.50;99.90;;;;;;5138181;27;20471;-80
2022/02/12 01:24:48;;;;;;;;;;;-1.50;99.90;;;;;;5120639;27;19911;-79
2022/02/12 01:27:13;;;;;;;;;;;-1.60;99.90;;;;;;5120597;27;19911;-79
2022/02/12 01:29:39;;;;;;;;;;;-1.60;99.90;;;;;;5130345;27;19994;-80
2022/02/12 01:32:05;;;;;;;;;;;-1.60;99.90;;;;;;5118621;28;19946;-79
2022/02/12 01:34:31;;;;;;;;;;;-1.60;99.90;;;;;;5123414;27;19959;-79
2022/02/12 01:36:57;;;;;;;;;;;-1.60;99.90;;;;;;5119750;27;20217;-80
2022/02/12 01:39:23;;;;;;;;;;;-1.60;99.90;;;;;;5137550;27;19965;-79
2022/02/12 01:41:48;;;;;;;;;;;-1.60;99.90;;;;;;5138628;27;19908;-79
2022/02/12 01:44:14;;;;;;;;;;;-1.60;99.90;;;;;;5120347;27;19918;-79
2022/02/12 01:46:39;;;;;;;;;;;-1.60;99.90;;;;;;5138396;27;19908;-79
2022/02/12 01:49:05;;;;;;;;;;;-1.70;99.90;;;;;;5120389;27;19907;-80
2022/02/12 01:51:31;;;;;;;;;;;-1.70;99.90;;;;;;5137604;27;19930;-79
2022/02/12 01:53:57;;;;;;;;;;;-1.70;99.90;;;;;;5138424;27;20350;-79
2022/02/12 01:56:23;;;;;;;;;;;-1.70;99.90;;;;;;5137665;27;19923;-79
2022/02/12 01:58:50;;;;;;;;;;;-1.70;99.90;;;;;;5136340;27;20199;-79
2022/02/12 02:01:17;;;;;;;;;;;-1.70;99.90;;;;;;5126145;27;19998;-79
2022/02/12 02:03:42;;;;;;;;;;;-1.70;99.90;;;;;;5120495;27;20261;-79
2022/02/12 02:06:08;;;;;;;;;;;-1.70;99.90;;;;;;5118708;27;19919;-80
2022/02/12 02:08:33;;;;;;;;;;;-1.70;99.90;;;;;;5121729;27;19965;-79
2022/02/12 02:10:59;;;;;;;;;;;-1.70;99.90;;;;;;5129605;27;19965;-79
2022/02/12 02:13:27;;;;;;;;;;;-1.60;99.90;;;;;;5126672;27;19915;-79
2022/02/12 02:15:53;;;;;;;;;;;-1.60;99.90;;;;;;5128402;27;19915;-79
2022/02/12 02:18:19;;;;;;;;;;;-1.60;99.90;;;;;;5132776;27;19912;-79
2022/02/12 02:20:45;;;;;;;;;;;-1.60;99.90;;;;;;5100767;27;20375;-79
2022/02/12 02:23:11;;;;;;;;;;;-1.60;99.90;;;;;;5129095;27;19908;-81
2022/02/12 02:25:36;;;;;;;;;;;-1.60;99.90;;;;;;5099254;28;20325;-79
2022/02/12 02:28:02;;;;;;;;;;;-1.60;99.90;;;;;;5100089;27;19920;-80
2022/02/12 02:30:27;;;;;;;;;;;-1.50;99.90;;;;;;5121538;27;20006;-80
2022/02/12 02:32:54;;;;;;;;;;;-1.50;99.90;;;;;;5118326;27;19912;-79
2022/02/12 02:35:21;;;;;;;;;;;-1.50;99.90;;;;;;5107318;27;20270;-80
2022/02/12 02:37:47;;;;;;;;;;;-1.50;99.90;;;;;;5122405;27;19916;-80
2022/02/12 02:40:17;;;;;;;;;;;-1.60;99.90;;;;;;5106919;27;20356;-79
2022/02/12 02:42:46;;;;;;;;;;;-1.50;99.90;;;;;;5128617;27;19923;-80
2022/02/12 02:45:13;;;;;;;;;;;-1.50;99.90;;;;;;5127613;27;19907;-79
2022/02/12 02:47:42;;;;;;;;;;;-1.50;99.90;;;;;;5123699;27;19925;-80
2022/02/12 02:55:59;;;;;;;;;;;-1.50;99.90;;;;;;5100790;27;20007;-80
2022/02/12 02:58:23;;;;;;;;;;;-1.40;99.90;;;;;;5123151;22;19939;-80
2022/02/12 03:00:48;;;;;;;;;;;-1.30;99.90;;;;;;5115696;28;19912;-81
2022/02/12 03:03:14;;;;;;;;;;;-1.30;99.90;;;;;;5114619;28;19912;-80
2022/02/12 03:05:39;;;;;;;;;;;-1.30;99.90;;;;;;5115529;28;19915;-81
2022/02/12 03:08:05;;;;;;;;;;;-1.20;99.90;;;;;;5112983;28;19908;-81
2022/02/12 03:10:30;;;;;;;;;;;-1.20;99.90;;;;;;5114998;28;19907;-80
2022/02/12 03:12:56;;;;;;;;;;;-1.20;99.90;;;;;;5113468;28;19911;-80
2022/02/12 03:15:21;;;;;;;;;;;-1.20;99.90;;;;;;5111942;28;19920;-80
2022/02/12 03:17:47;;;;;;;;;;;-1.30;99.90;;;;;;5086419;28;19912;-80
2022/02/12 03:20:13;;;;;;;;;;;-1.30;99.90;;;;;;5097533;28;19949;-78
2022/02/12 03:22:38;;;;;;;;;;;-1.30;99.90;;;;;;5115321;28;19916;-81
2022/02/12 03:25:04;;;;;;;;;;;-1.40;99.90;;;;;;5098137;28;20350;-80
2022/02/12 03:27:30;;;;;;;;;;;-1.40;99.90;;;;;;5108897;28;19986;-79
2022/02/12 03:29:55;;;;;;;;;;;-1.40;99.90;;;;;;5096735;28;19943;-80
2022/02/12 03:32:21;;;;;;;;;;;-1.40;99.90;;;;;;5095566;28;19958;-80
2022/02/12 03:34:48;;;;;;;;;;;-1.40;99.90;;;;;;5097407;28;19923;-80
2022/02/12 03:37:14;;;;;;;;;;;-1.40;99.90;;;;;;5095429;28;20042;-80
2022/02/12 03:39:40;;;;;;;;;;;-1.40;99.90;;;;;;5108522;28;19955;-82
2022/02/12 03:42:05;;;;;;;;;;;-1.30;99.90;;;;;;5095563;28;19943;-81
2022/02/12 03:44:31;;;;;;;;;;;-1.30;99.90;;;;;;5077438;28;19934;-81
2022/02/12 03:46:57;;;;;;;;;;;-1.20;99.90;;;;;;5095824;28;19912;-81
2022/02/12 03:49:22;;;;;;;;;;;-1.10;99.90;;;;;;5078601;28;19920;-77
2022/02/12 03:51:48;;;;;;;;;;;-1.20;99.90;;;;;;5115960;28;19915;-81
2022/02/12 03:54:14;;;;;;;;;;;-1.20;99.90;;;;;;5115763;28;19908;-80
2022/02/12 03:56:39;;;;;;;;;;;-1.10;99.90;;;;;;5096217;28;19947;-81
2022/02/12 03:59:05;;;;;;;;;;;-1.10;99.90;;;;;;5095230;28;19923;-81
2022/02/12 04:01:31;;;;;;;;;;;-1.10;99.90;;;;;;5096571;28;19912;-80
2022/02/12 04:03:56;;;;;;;;;;;-1.10;99.90;;;;;;5077377;28;19909;-81
2022/02/12 04:06:22;;;;;;;;;;;-1.10;99.90;;;;;;5103509;28;19961;-81
2022/02/12 04:08:47;;;;;;;;;;;-1.20;99.90;;;;;;5081511;28;19916;-81
2022/02/12 04:11:13;;;;;;;;;;;-1.20;99.90;;;;;;5095651;28;19986;-77
2022/02/12 04:13:38;;;;;;;;;;;-1.20;99.90;;;;;;5095157;28;19914;-81
2022/02/12 04:16:04;;;;;;;;;;;-1.20;99.90;;;;;;5109920;28;20315;-81
2022/02/12 04:18:30;;;;;;;;;;;-1.20;99.90;;;;;;5110849;28;20002;-81
2022/02/12 04:20:55;;;;;;;;;;;-1.20;99.90;;;;;;5119231;28;20007;-81
2022/02/12 04:23:21;;;;;;;;;;;-1.20;99.90;;;;;;5119885;28;19914;-82
2022/02/12 04:25:47;;;;;;;;;;;-1.20;99.90;;;;;;5117738;28;20282;-81
2022/02/12 04:28:12;;;;;;;;;;;-1.20;99.90;;;;;;5101691;28;20006;-81
2022/02/12 04:30:39;;;;;;;;;;;-1.20;99.90;;;;;;5105610;28;19922;-81
2022/02/12 04:33:08;;;;;;;;;;;-1.20;99.90;;;;;;5081058;28;20306;-81
2022/02/12 04:35:34;;;;;;;;;;;-1.20;99.90;;;;;;5099632;28;20333;-81
2022/02/12 04:37:59;;;;;;;;;;;-1.10;99.90;;;;;;5099179;28;20016;-80
2022/02/12 04:40:25;;;;;;;;;;;-1.10;99.90;;;;;;5110293;28;20199;-81
2022/02/12 04:42:50;;;;;;;;;;;-1.00;99.90;;;;;;5101279;28;19986;-82
2022/02/12 04:45:16;;;;;;;;;;;-1.00;99.90;;;;;;5117563;28;19947;-82
2022/02/12 04:47:43;;;;;;;;;;;-1.00;99.90;;;;;;5103706;28;20495;-81
2022/02/12 04:50:09;;;;;;;;;;;-1.00;99.90;;;;;;5092192;28;19912;-81
2022/02/12 04:52:35;;;;;;;;;;;-1.00;99.90;;;;;;5117440;28;19914;-81
2022/02/12 04:55:01;;;;;;;;;;;-1.10;99.90;;;;;;5098686;28;19998;-80
2022/02/12 04:57:27;;;;;;;;;;;-1.10;99.90;;;;;;5113824;28;19924;-81
2022/02/12 04:59:52;;;;;;;;;;;-1.10;99.90;;;;;;5095371;28;19926;-81
2022/02/12 05:02:18;;;;;;;;;;;-1.10;99.90;;;;;;5081715;28;19918;-81
2022/02/12 05:04:43;;;;;;;;;;;-1.10;99.90;;;;;;5098398;28;19954;-76
2022/02/12 05:07:09;;;;;;;;;;;-1.10;99.90;;;;;;5098688;28;19957;-81
2022/02/12 05:09:35;;;;;;;;;;;-1.10;99.90;;;;;;5098512;28;20501;-81
2022/02/12 05:12:04;;;;;;;;;;;-1.00;99.90;;;;;;5101599;28;19958;-81
2022/02/12 05:14:31;;;;;;;;;;;-1.00;99.90;;;;;;5080216;28;20299;-82
2022/02/12 05:16:57;;;;;;;;;;;-1.00;99.90;;;;;;5111732;28;19911;-81
2022/02/12 05:19:23;;;;;;;;;;;-1.10;99.90;;;;;;5091759;28;19926;-79
2022/02/12 05:21:49;;;;;;;;;;;-1.10;99.90;;;;;;5100048;28;19912;-81
2022/02/12 05:24:14;;;;;;;;;;;-1.10;99.90;;;;;;5098159;28;19961;-81
2022/02/12 05:26:40;;;;;;;;;;;-1.10;99.90;;;;;;5100555;28;19965;-82
2022/02/12 05:29:05;;;;;;;;;;;-1.10;99.90;;;;;;5082246;28;19920;-81
2022/02/12 05:31:31;;;;;;;;;;;-1.10;99.90;;;;;;5097933;28;19916;-82
2022/02/12 05:33:56;;;;;;;;;;;-1.20;99.90;;;;;;5103573;28;19912;-81
2022/02/12 05:36:22;;;;;;;;;;;-1.20;99.90;;;;;;5107438;28;19927;-81
2022/02/12 05:38:47;;;;;;;;;;;-1.20;99.90;;;;;;5116706;28;20310;-82
2022/02/12 05:41:14;;;;;;;;;;;-1.20;99.90;;;;;;5103051;28;20223;-81
2022/02/12 05:43:40;;;;;;;;;;;-1.20;99.90;;;;;;5098620;28;19909;-82
2022/02/12 05:46:05;;;;;;;;;;;-1.30;99.90;;;;;;5063220;28;19912;-81
2022/02/12 05:48:31;;;;;;;;;;;-1.30;99.90;;;;;;5099578;28;19999;-81
2022/02/12 05:50:57;;;;;;;;;;;-1.30;99.90;;;;;;5079902;28;20211;-82
2022/02/12 05:53:23;;;;;;;;;;;-1.30;99.90;;;;;;5098304;28;19918;-78
2022/02/12 05:55:49;;;;;;;;;;;-1.30;99.90;;;;;;5100020;28;20237;-82
2022/02/12 05:58:14;;;;;;;;;;;-1.30;99.90;;;;;;5097817;28;19972;-82
2022/02/12 06:00:40;;;;;;;;;;;-1.30;99.90;;;;;;5106236;28;19922;-82
2022/02/12 06:03:05;;;;;;;;;;;-1.30;99.90;;;;;;5099817;28;19912;-81
2022/02/12 06:05:31;;;;;;;;;;;-1.40;99.90;;;;;;5081243;28;20003;-81
2022/02/12 06:07:59;;;;;;;;;;;-1.40;99.90;;;;;;5099208;28;19947;-81
2022/02/12 06:10:26;;;;;;;;;;;-1.40;99.90;;;;;;5114146;28;19933;-81
2022/02/12 06:12:52;;;;;;;;;;;-1.40;99.90;;;;;;5087778;28;19912;-82
2022/02/12 06:15:17;;;;;;;;;;;-1.40;99.90;;;;;;5117236;28;19912;-81
2022/02/12 06:17:43;;;;;;;;;;;-1.30;99.90;;;;;;5117581;28;20226;-77
2022/02/12 06:20:08;;;;;;;;;;;-1.30;99.90;;;;;;5110498;28;19958;-81
2022/02/12 06:22:34;;;;;;;;;;;-1.30;99.90;;;;;;5117370;28;19923;-79
2022/02/12 06:25:00;;;;;;;;;;;-1.20;99.90;;;;;;5086461;28;20189;-80
2022/02/12 06:27:26;;;;;;;;;;;-1.10;99.90;;;;;;5097281;28;19912;-81
2022/02/12 06:29:51;;;;;;;;;;;-1.10;99.90;;;;;;5097459;28;20219;-82
2022/02/12 06:32:17;;;;;;;;;;;-1.00;99.90;;;;;;5079546;28;19912;-81
2022/02/12 06:34:42;;;;;;;;;;;-1.10;99.90;;;;;;5115719;28;19931;-78
2022/02/12 06:37:09;;;;;;;;;;;-1.10;99.90;;;;;;5117341;28;19914;-82
2022/02/12 06:39:35;;;;;;;;;;;-1.10;99.90;;;;;;5116833;28;20298;-83
2022/02/12 06:42:01;;;;;;;;;;;-1.10;99.90;;;;;;5117023;28;19961;-83
2022/02/12 06:44:27;;;;;;;;;;;-1.10;99.90;;;;;;5114046;28;20341;-82
2022/02/12 06:46:52;;;;;;;;;;;-1.10;99.90;;;;;;5117301;28;19915;-82
2022/02/12 06:49:18;;;;;;;;;;;-1.10;99.90;;;;;;5099109;28;19912;-82
2022/02/12 06:51:43;;;;;;;;;;;-1.20;99.90;;;;;;5115413;28;19908;-77
2022/02/12 06:54:09;;;;;;;;;;;-1.30;99.90;;;;;;5116891;28;19915;-81
2022/02/12 06:56:34;;;;;;;;;;;-1.30;99.90;;;;;;5080729;28;19915;-82
2022/02/12 06:59:00;;;;;;;;;;;-1.30;99.90;;;;;;5107726;28;19959;-83
2022/02/12 07:01:26;;;;;;;;;;;-1.30;99.90;;;;;;5105015;28;19912;-82
2022/02/12 07:03:52;;;;;;;;;;;-1.30;99.90;;;;;;5096488;28;19908;-82
2022/02/12 07:06:18;;;;;;;;;;;-1.30;99.90;;;;;;5078709;28;19912;-82
2022/02/12 07:08:43;;;;;;;;;;;-1.20;99.90;;;;;;5108225;28;19912;-78
2022/02/12 07:11:09;;;;;;;;;;;-1.30;99.90;;;;;;5091831;28;19916;-81
2022/02/12 07:13:34;;;;;;;;;;;-1.30;99.90;;;;;;5109667;28;19908;-81
2022/02/12 07:16:01;;;;;;;;;;;-1.30;99.90;;;;;;5115203;28;20010;-80
2022/02/12 07:18:30;;;;;;;;;;;-1.20;99.90;;;;;;5097215;28;20569;-81
2022/02/12 07:20:56;;;;;;;;;;;-1.20;99.90;;;;;;5115473;28;19911;-82
2022/02/12 07:23:22;;;;;;;;;;;-1.10;99.90;;;;;;5115631;28;19908;-81
2022/02/12 07:25:47;;;;;;;;;;;-1.10;99.90;;;;;;5114889;28;19970;-82
2022/02/12 07:28:13;;;;;;;;;;;-1.10;99.90;;;;;;5115309;28;19911;-78
2022/02/12 07:30:40;;;;;;;;;;;-1.10;99.90;;;;;;5108717;28;19924;-82
2022/02/12 07:33:07;;;;;;;;;;;-1.10;99.90;;;;;;5110738;28;19919;-81
2022/02/12 07:35:32;;;;;;;;;;;-1.00;99.90;;;;;;5115347;28;19947;-81
2022/02/12 07:37:59;;;;;;;;;;;-1.00;99.90;;;;;;5114506;28;19916;-78
2022/02/12 07:40:25;;;;;;;;;;;-0.90;99.90;;;;;;5114252;28;20310;-82
2022/02/12 07:42:50;;;;;;;;;;;-0.80;99.90;;;;;;5097424;28;19918;-81
2022/02/12 07:45:19;;;;;;;;;;;-0.60;99.90;;;;;;5095259;28;19919;-84
2022/02/12 07:47:45;;;;;;;;;;;-0.20;99.90;;;;;;5113565;27;19912;-82
2022/02/12 07:50:11;;;;;;;;;;;0.00;99.90;;;;;;5096338;28;19924;-82
2022/02/12 07:52:37;;;;;;;;;;;0.10;99.90;;;;;;5111584;28;19920;-80
2022/02/12 07:55:03;;;;;;;;;;;0.20;99.90;;;;;;5113175;28;19924;-79
2022/02/12 07:57:29;;;;;;;;;;;0.40;99.90;;;;;;5115429;28;20018;-82
2022/02/12 07:59:54;;;;;;;;;;;0.60;99.90;;;;;;5097421;28;20350;-81
2022/02/12 08:02:20;;;;;;;;;;;1.10;99.90;;;;;;5114057;28;19912;-82
2022/02/12 08:04:45;;;;;;;;;;;1.50;99.90;;;;;;5093966;28;19939;-81
2022/02/12 08:07:29;;;;;;;;;;;1.80;99.90;;;;;;5095960;28;20238;-83
2022/02/12 08:09:58;;;;;;;;;;;1.80;99.90;;;;;;5082421;28;19916;-82
2022/02/12 08:12:25;;;;;;;;;;;1.60;99.90;;;;;;5112105;28;19957;-81
2022/02/12 08:14:52;;;;;;;;;;;1.30;99.90;;;;;;5097675;28;19919;-83
2022/02/12 08:17:18;;;;;;;;;;;1.10;99.90;;;;;;5116114;28;19973;-81
2022/02/12 08:19:44;;;;;;;;;;;0.90;99.90;;;;;;5111777;28;19919;-81
2022/02/12 08:22:13;;;;;;;;;;;0.80;99.90;;;;;;5085898;28;20307;-83
2022/02/12 08:24:39;;;;;;;;;;;0.80;99.90;;;;;;5113848;28;19918;-80
2022/02/12 08:27:05;;;;;;;;;;;0.80;99.90;;;;;;5114280;28;19912;-81
2022/02/12 08:29:30;;;;;;;;;;;0.80;99.90;;;;;;5110632;28;19916;-82
2022/02/12 08:31:57;;;;;;;;;;;0.90;99.90;;;;;;5089009;28;19916;-81
2022/02/12 08:34:23;;;;;;;;;;;0.90;99.90;;;;;;5098408;28;19942;-80
2022/02/12 08:36:49;;;;;;;;;;;0.90;99.90;;;;;;5114092;28;19922;-81
2022/02/12 08:39:14;;;;;;;;;;;1.00;99.90;;;;;;5113879;28;19912;-79
2022/02/12 08:41:40;;;;;;;;;;;1.00;99.90;;;;;;5113447;28;20324;-79
2022/02/12 08:44:05;;;;;;;;;;;1.10;99.90;;;;;;5110691;28;20287;-80
2022/02/12 08:46:31;;;;;;;;;;;1.10;99.90;;;;;;5117190;28;20214;-80
2022/02/12 08:48:58;;;;;;;;;;;1.20;99.90;;;;;;5093923;28;19912;-79
2022/02/12 08:51:24;;;;;;;;;;;1.20;99.90;;;;;;5090558;28;19998;-82
2022/02/12 08:53:50;;;;;;;;;;;1.20;99.90;;;;;;5095835;28;20331;-80
2022/02/12 08:56:15;;;;;;;;;;;1.40;99.90;;;;;;5092241;28;19916;-82
2022/02/12 08:58:41;;;;;;;;;;;1.50;99.90;;;;;;5090673;28;20253;-82
2022/02/12 09:01:07;;;;;;;;;;;1.50;99.90;;;;;;5112749;28;20326;-80
2022/02/12 09:03:32;;;;;;;;;;;1.70;99.90;;;;;;5113581;28;20383;-80
2022/02/12 09:06:01;;;;;;;;;;;1.80;99.90;;;;;;5094621;28;20264;-82
2022/02/12 09:08:27;;;;;;;;;;;1.80;99.90;;;;;;5094912;28;20218;-82
2022/02/12 09:10:52;;;;;;;;;;;1.90;99.90;;;;;;5115020;28;20018;-84
2022/02/12 09:13:18;;;;;;;;;;;2.00;99.90;;;;;;5116321;28;19911;-80
2022/02/12 09:15:43;;;;;;;;;;;2.00;99.90;;;;;;5099964;28;19924;-80
2022/02/12 09:18:09;;;;;;;;;;;2.10;99.90;;;;;;5093654;28;19909;-80
2022/02/12 09:20:35;;;;;;;;;;;2.10;99.90;;;;;;5086046;28;20316;-80
2022/02/12 09:23:00;;;;;;;;;;;2.20;99.90;;;;;;5117825;28;19916;-80
2022/02/12 09:25:26;;;;;;;;;;;2.30;99.90;;;;;;5117269;28;19955;-80
2022/02/12 09:27:52;;;;;;;;;;;2.40;99.90;;;;;;5117661;28;19908;-81
2022/02/12 09:30:18;;;;;;;;;;;2.50;99.90;;;;;;5116879;28;19945;-80
2022/02/12 09:32:43;;;;;;;;;;;2.80;99.90;;;;;;5092647;28;20303;-77
2022/02/12 09:35:09;;;;;;;;;;;3.00;99.90;;;;;;5116849;28;20014;-81
2022/02/12 09:37:34;;;;;;;;;;;3.20;99.90;;;;;;5098785;28;20234;-78
2022/02/12 09:40:00;;;;;;;;;;;3.20;99.90;;;;;;5098956;28;19908;-78
2022/02/12 09:42:26;;;;;;;;;;;3.20;99.90;;;;;;5114706;28;20006;-76
2022/02/12 09:44:51;;;;;;;;;;;3.30;99.90;;;;;;5117048;28;19911;-76
2022/02/12 09:47:25;;;;;;;;;;;3.40;99.90;;;;;;5114673;28;19919;-76
2022/02/12 09:49:55;;;;;;;;;;;3.70;99.90;;;;;;5095505;28;19919;-76
2022/02/12 09:52:22;;;;;;;;;;;4.30;99.90;;;;;;5111547;28;19916;-75
2022/02/12 09:54:47;;;;;;;;;;;4.70;99.90;;;;;;5097183;28;20378;-76
2022/02/12 09:57:13;;;;;;;;;;;5.00;99.90;;;;;;5117280;28;19922;-77
2022/02/12 09:59:38;;;;;;;;;;;5.20;99.90;;;;;;5097706;28;19924;-76
2022/02/12 10:02:04;;;;;;;;;;;5.40;99.90;;;;;;5114777;28;19929;-75
2022/02/12 10:04:31;;;;;;;;;;;5.40;99.90;;;;;;5100071;28;19923;-75
2022/02/12 10:06:57;;;;;;;;;;;5.50;99.90;;;;;;5098985;28;20314;-76
2022/02/12 10:09:23;;;;;;;;;;;5.40;99.90;;;;;;5105609;27;20394;-76
2022/02/12 10:11:49;;;;;;;;;;;5.60;99.90;;;;;;5094947;28;20006;-76
2022/02/12 10:14:16;;;;;;;;;;;5.70;99.90;;;;;;5107626;28;19916;-76
2022/02/12 10:17:08;;;;;;;;;;;5.60;99.90;;;;;;5113828;28;19945;-76
2022/02/12 10:19:35;;;;;;;;;;;5.40;99.90;;;;;;5107052;28;19916;-76
2022/02/12 10:22:09;;;;;;;;;;;5.50;99.90;;;;;;5093085;28;20332;-76
2022/02/12 10:24:45;;;;;;;;;;;5.50;99.90;;;;;;5100304;28;19911;-76
2022/02/12 10:27:10;;;;;;;;;;;5.40;99.90;;;;;;5099776;28;19911;-76
2022/02/12 10:29:36;;;;;;;;;;;5.40;99.90;;;;;;5109096;28;19911;-77
2022/02/12 10:32:01;;;;;;;;;;;5.50;99.90;;;;;;5108073;28;19912;-79
2022/02/12 10:34:36;;;;;;;;;;;5.40;99.90;;;;;;5108370;28;20002;-76
2022/02/12 10:37:03;;;;;;;;;;;5.30;99.90;;;;;;5096580;28;19912;-76
2022/02/12 10:39:28;;;;;;;;;;;5.20;99.90;;;;;;5078920;28;19947;-77
2022/02/12 10:42:06;;;;;;;;;;;5.20;99.90;;;;;;5078712;28;19951;-76
2022/02/12 10:44:32;;;;;;;;;;;5.20;99.90;;;;;;5078301;28;20321;-77
2022/02/12 10:46:58;;;;;;;;;;;5.30;99.90;;;;;;5096464;28;19982;-77
2022/02/12 10:49:24;;;;;;;;;;;5.30;99.90;;;;;;5086220;28;19958;-76
2022/02/12 10:51:51;;;;;;;;;;;5.40;99.90;;;;;;5095170;28;19991;-77
2022/02/12 10:54:19;;;;;;;;;;;5.40;99.90;;;;;;5095097;28;19965;-76
2022/02/12 10:56:46;;;;;;;;;;;5.40;99.90;;;;;;5096205;28;19912;-77
2022/02/12 10:59:12;;;;;;;;;;;5.40;99.90;;;;;;5097388;28;20275;-77
2022/02/12 11:01:38;;;;;;;;;;;5.50;99.90;;;;;;5116309;28;20253;-76
2022/02/12 11:04:05;;;;;;;;;;;5.50;99.90;;;;;;5098310;28;19915;-77
2022/02/12 11:06:30;;;;;;;;;;;5.50;99.90;;;;;;5116444;28;20328;-77
2022/02/12 11:08:56;;;;;;;;;;;5.60;99.90;;;;;;5116610;28;20006;-76
2022/02/12 11:11:22;;;;;;;;;;;5.70;99.90;;;;;;5083413;28;19915;-77
2022/02/12 11:13:47;;;;;;;;;;;5.80;99.90;;;;;;5091862;28;20277;-77
2022/02/12 11:16:13;;;;;;;;;;;5.90;99.90;;;;;;5088538;28;20272;-77
2022/02/12 11:18:39;;;;;;;;;;;6.10;99.90;;;;;;5083819;28;20299;-77
2022/02/12 11:21:05;;;;;;;;;;;6.20;99.90;;;;;;5089361;28;19912;-77
2022/02/12 11:23:31;;;;;;;;;;;6.30;99.90;;;;;;5112775;28;20244;-77
2022/02/12 11:26:03;;;;;;;;;;;6.30;99.90;;;;;;5096541;28;20345;-77
2022/02/12 11:28:29;;;;;;;;;;;6.30;99.90;;;;;;5114544;28;20202;-77
2022/02/12 11:31:13;;;;;;;;;;;6.40;99.90;;;;;;5113396;28;19973;-77
2022/02/12 11:33:59;;;;;;;;;;;6.40;99.90;;;;;;5115481;27;20299;-77
2022/02/12 11:36:24;;;;;;;;;;;6.40;99.90;;;;;;5096708;28;19926;-77
2022/02/12 11:39:04;;;;;;;;;;;6.40;99.90;;;;;;5118065;27;19907;-77
2022/02/12 11:41:30;;;;;;;;;;;6.50;99.90;;;;;;5094944;28;19958;-77
2022/02/12 11:43:55;;;;;;;;;;;6.50;99.90;;;;;;5095575;28;19943;-77
2022/02/12 11:46:40;;;;;;;;;;;6.50;99.90;;;;;;5089870;27;19926;-77
2022/02/12 11:49:25;;;;;;;;;;;6.40;99.90;;;;;;5105185;28;20299;-77
2022/02/12 11:51:51;;;;;;;;;;;6.40;99.90;;;;;;5085193;28;19912;-77
2022/02/12 11:54:35;;;;;;;;;;;6.40;99.90;;;;;;5105766;28;19912;-77
2022/02/12 11:57:00;;;;;;;;;;;6.50;99.90;;;;;;5083782;28;19923;-77
2022/02/12 11:59:26;;;;;;;;;;;6.50;99.90;;;;;;5107721;28;19920;-77
2022/02/12 12:01:53;;;;;;;;;;;6.60;99.90;;;;;;5085587;28;19919;-77
2022/02/12 12:04:19;;;;;;;;;;;6.60;99.90;;;;;;5105194;28;19994;-78
2022/02/12 12:07:02;;;;;;;;;;;6.60;99.90;;;;;;5103986;28;19935;-77
2022/02/12 12:09:31;;;;;;;;;;;6.60;99.90;;;;;;5104771;28;20204;-78
2022/02/12 12:12:12;;;;;;;;;;;6.70;99.90;;;;;;5085377;28;19912;-77
2022/02/12 12:14:38;;;;;;;;;;;6.80;99.90;;;;;;5101884;28;20445;-77
2022/02/12 12:17:04;;;;;;;;;;;6.80;99.90;;;;;;5105302;28;20011;-78
2022/02/12 12:19:34;;;;;;;;;;;6.90;99.90;;;;;;5084283;28;19991;-78
2022/02/12 12:22:03;;;;;;;;;;;6.90;99.90;;;;;;5103105;28;19918;-76
2022/02/12 12:24:29;;;;;;;;;;;6.80;99.90;;;;;;5104030;28;20261;-79
2022/02/12 12:26:55;;;;;;;;;;;6.80;99.90;;;;;;5103685;28;19920;-77
2022/02/12 12:32:07;;;;;;;;;;;6.90;99.90;;;;;;5106042;28;19918;-77
2022/02/12 12:34:33;;;;;;;;;;;6.90;99.90;;;;;;5076780;28;19920;-77
2022/02/12 12:37:01;;;;;;;;;;;6.90;99.90;;;;;;5095421;28;19912;-78
2022/02/12 12:39:32;;;;;;;;;;;6.90;99.90;;;;;;5076919;28;19938;-77
2022/02/12 12:41:58;;;;;;;;;;;7.00;99.90;;;;;;5099443;28;19923;-77
2022/02/12 12:44:24;;;;;;;;;;;7.10;99.90;;;;;;5099314;28;19916;-78
2022/02/12 12:46:51;;;;;;;;;;;7.10;99.90;;;;;;5081740;28;19919;-78
2022/02/12 12:49:25;;;;;;;;;;;7.10;99.90;;;;;;5092860;28;19955;-77
2022/02/12 12:51:51;;;;;;;;;;;7.10;99.90;;;;;;5100832;28;19954;-78
2022/02/12 12:54:25;;;;;;;;;;;7.10;99.90;;;;;;5098573;28;19959;-77
2022/02/12 12:56:51;;;;;;;;;;;7.10;99.90;;;;;;5080689;28;20295;-77
2022/02/12 12:59:18;;;;;;;;;;;7.20;99.90;;;;;;5107886;28;19945;-78
2022/02/12 13:02:03;;;;;;;;;;;7.20;99.90;;;;;;5100060;28;20219;-77
2022/02/12 13:04:29;;;;;;;;;;;7.30;99.90;;;;;;5117058;28;19926;-77
2022/02/12 13:06:56;;;;;;;;;;;7.20;99.90;;;;;;5119039;28;20010;-76
2022/02/12 13:09:22;;;;;;;;;;;7.20;99.90;;;;;;5117072;28;20303;-76
2022/02/12 13:11:49;;;;;;;;;;;7.20;99.90;;;;;;5118722;28;20023;-76
2022/02/12 13:14:14;;;;;;;;;;;7.20;99.90;;;;;;5094158;28;19912;-76
2022/02/12 13:16:41;;;;;;;;;;;7.30;99.90;;;;;;5098367;28;19923;-77
2022/02/12 13:19:14;;;;;;;;;;;7.20;99.90;;;;;;5090268;28;20307;-76
2022/02/12 13:21:50;;;;;;;;;;;7.20;99.90;;;;;;5080095;28;19908;-76
2022/02/12 13:24:15;;;;;;;;;;;7.10;99.90;;;;;;5098121;28;19919;-77
2022/02/12 13:26:44;;;;;;;;;;;7.10;99.90;;;;;;5113032;28;19920;-77
2022/02/12 13:29:19;;;;;;;;;;;7.10;99.90;;;;;;5117295;27;19919;-77
2022/02/12 13:31:47;;;;;;;;;;;7.10;99.90;;;;;;5099264;28;20382;-76
2022/02/12 13:34:15;;;;;;;;;;;7.10;99.90;;;;;;5107832;27;20238;-76
2022/02/12 13:36:41;;;;;;;;;;;7.00;99.90;;;;;;5108733;27;19969;-77
2022/02/12 13:39:06;;;;;;;;;;;6.80;99.90;;;;;;5119587;27;19999;-76
2022/02/12 13:41:38;;;;;;;;;;;6.80;99.90;;;;;;5101323;28;20002;-76
2022/02/12 13:44:03;;;;;;;;;;;6.90;99.90;;;;;;5116465;28;19916;-77
2022/02/12 13:46:33;;;;;;;;;;;6.90;99.90;;;;;;5096864;28;20042;-77
2022/02/12 13:49:12;;;;;;;;;;;6.80;99.90;;;;;;5092978;28;19918;-76
2022/02/12 13:51:48;;;;;;;;;;;7.00;99.90;;;;;;5102883;28;19926;-78
2022/02/12 13:54:14;;;;;;;;;;;6.80;99.90;;;;;;5109729;28;20318;-76
2022/02/12 13:56:40;;;;;;;;;;;6.70;99.90;;;;;;5108635;28;19927;-76
2022/02/12 13:59:05;;;;;;;;;;;6.60;99.90;;;;;;5111611;28;19923;-77
2022/02/12 14:01:31;;;;;;;;;;;6.60;99.90;;;;;;5097710;28;19922;-77
2022/02/12 14:03:56;;;;;;;;;;;6.60;99.90;;;;;;5098691;28;19915;-77
2022/02/12 14:06:22;;;;;;;;;;;6.60;99.90;;;;;;5116900;28;19916;-76
2022/02/12 14:08:48;;;;;;;;;;;6.50;99.90;;;;;;5093481;28;19920;-77
2022/02/12 14:11:13;;;;;;;;;;;6.60;99.90;;;;;;5105545;28;19967;-76
2022/02/12 14:13:39;;;;;;;;;;;6.70;99.90;;;;;;5111107;28;20027;-77
2022/02/12 14:16:05;;;;;;;;;;;6.60;99.90;;;;;;5087070;28;19916;-77
2022/02/12 14:18:31;;;;;;;;;;;6.60;99.90;;;;;;5097654;28;19912;-76
2022/02/12 14:20:57;;;;;;;;;;;6.60;99.90;;;;;;5096915;28;20311;-76
2022/02/12 14:23:22;;;;;;;;;;;6.60;99.90;;;;;;5097004;28;20015;-76
2022/02/12 14:25:48;;;;;;;;;;;6.60;99.90;;;;;;5097464;28;19915;-76
2022/02/12 14:28:14;;;;;;;;;;;6.60;99.90;;;;;;5099534;28;19918;-76
2022/02/12 14:30:41;;;;;;;;;;;6.60;99.90;;;;;;5096820;28;20003;-76